• Join FlightAware (Why Join?)
  • Login
  • US Flag 
Gobble Gobble! 
02:03PM EST


 

Airport Tracker/Info


-or-


 

Live Flight TrackerFlight Track Log ✈ RPA4900 ✈ 21-Jun-2013 ✈ KEWR - KORF

Flight Track Log - Related Links

Times and Time Zones

All times are in EDT time to prevent confusion due to time zone crossing. See the RPA4900 flight status page for this flight to view local times or setup timezone preferences in your user account.

Time Position Orientation Groundspeed Altitude Reporting Facility
EDT Latitude Longitude Course Direction KTS MPH feet Rate Location/Type
12:23PM 40.6333 -74.1833 217° Southwest 201 231 1,800  Level New York TRACON
12:24PM 40.5833 -74.2333 217° Southwest 216 249 3,900 2,100 Climbing New York TRACON
12:25PM 40.3377 -74.1705 157° South  Level FlightAware Approximate
12:25PM 40.5333 -74.2667 207° Southwest 219 252 6,000  Level New York TRACON
12:26PM 40.2471 -74.1676 194° South  Level FlightAware Approximate
12:26PM 40.4667 -74.2500 169° South 261 300 6,100  Level New York TRACON
12:27PM 40.1547 -74.1984 194° South  Level FlightAware Approximate
12:27PM 40.4000 -74.2000 150° Southeast 267 307 6,100  Level New York TRACON
12:27PM 40.3581 -74.1839 164° South 275 316 6,400 1,140 Climbing New York Center
12:28PM 40.0643 -74.2190 217° Southwest  Level FlightAware Approximate
12:28PM 40.2850 -74.1911 184° South 263 303 8,100  Level New York Center
12:29PM 40.2219 -74.2097 193° South 260 299 9,900 1,440 Climbing New York Center
12:30PM 40.1381 -74.2272 189° South 267 307 11,000 1,080 Climbing New York Center
12:31PM 40.0564 -74.2422 188° South 290 334 12,100 1,140 Climbing New York Center
12:33PM 39.9589 -74.3328 215° Southwest 266 306 14,100 1,200 Climbing Washington Center
12:34PM 39.9014 -74.4014 222° Southwest 277 319 15,300 1,140 Climbing Washington Center
12:35PM 39.8436 -74.4700 222° Southwest 283 326 16,400 1,020 Climbing Washington Center
12:36PM 39.7881 -74.5411 225° Southwest 289 333 17,400 840 Climbing Washington Center
12:37PM 39.7283 -74.6094 221° Southwest 289 333 18,100 840 Climbing Washington Center
12:38PM 39.6706 -74.6775 222° Southwest 289 333 19,100 960 Climbing Washington Center
12:39PM 39.6106 -74.7458 221° Southwest 289 333 20,100 960 Climbing Washington Center
12:40PM 39.5506 -74.8192 223° Southwest 289 333 21,100 840 Climbing Washington Center
12:41PM 39.4928 -74.8869 222° Southwest 289 333 21,900 420 Climbing Washington Center
12:42PM 39.4325 -74.9600 223° Southwest 289 333 22,000  Climbing Washington Center
12:43PM 39.3683 -75.0331 221° Southwest 302 348 22,000  Level Washington Center
12:44PM 39.3000 -75.1142 223° Southwest 314 361 22,000  Level Washington Center
12:45PM 39.2083 -75.1550 199° South 329 379 22,000  Level Washington Center
12:46PM 39.1169 -75.1903 197° South 335 386 22,000  Level Washington Center
12:47PM 39.0211 -75.2283 197° South 352 405 22,000  Level Washington Center
12:48PM 38.9317 -75.2686 199° South 352 405 22,000  Level Washington Center
12:49PM 38.8378 -75.3092 199° South 352 405 22,000  Level Washington Center
12:50PM 38.7442 -75.3467 197° South 352 405 22,000  Level Washington Center
12:51PM 38.6503 -75.3844 197° South 352 405 22,000  Level Washington Center
12:52PM 38.5567 -75.4217 197° South 352 405 22,000  Level Washington Center
12:53PM 38.4628 -75.4617 198° South 352 405 22,000  Level Washington Center
12:54PM 38.3711 -75.5017 199° South 352 405 22,000 -480 Level Washington Center
12:55PM 38.2753 -75.5519 202° Southwest 358 412 21,100 -1,260 Descending Washington Center
12:56PM 38.1836 -75.6103 207° Southwest 364 419 19,500 -1,560 Descending Washington Center
12:57PM 38.0939 -75.6656 206° Southwest 364 419 18,000 -1,500 Descending Washington Center
12:58PM 38.0042 -75.7261 208° Southwest 364 419 16,500 -1,560 Descending Washington Center
12:59PM 37.9144 -75.7786 205° Southwest 364 419 15,000 -1,560 Descending Washington Center
01:00PM 37.8267 -75.8311 205° Southwest 364 419 13,500 -1,500 Descending Washington Center
01:01PM 37.7453 -75.8833 207° Southwest 357 411 12,100 -1,380 Descending Washington Center
01:02PM 37.6639 -75.9328 206° Southwest 336 387 10,800 -1,140 Descending Washington Center
01:03PM 37.5928 -75.9692 202° Southwest 296 341 10,000 -840 Descending Washington Center
01:04PM 37.5092 -75.9950 194° South 305 351 9,200 -960 Descending Washington Center
01:05PM 37.4342 -76.0181 194° South 288 331 8,000 -1,320 Descending Washington Center
01:06PM 37.3797 -76.0361 195° South 256 295 6,900 -1,560 Descending Washington Center
01:07PM 37.3192 -76.0592 197° South 248 285 5,400 -900 Descending Washington Center
01:08PM 37.2356 -76.0850 194° South 249 287 5,000 -180 Descending Washington Center
01:09PM 37.1647 -76.1131 198° South 260 299 5,000  Level Washington Center
01:10PM 37.0978 -76.1336 194° South 255 293 5,000  Level Washington Center
01:11PM 37.0414 -76.1800 213° Southwest 262 302 5,000 -60 Level Washington Center
01:12PM 36.9825 -76.2264 212° Southwest 261 300 4,900 -120 Descending Washington Center